Date,TemperatureHighF,TemperatureAvgF,TemperatureLowF,DewpointHighF,DewpointAvgF,DewpointLowF,HumidityHigh,HumidityAvg,HumidityLow,PressureMaxIn,PressureMinIn,WindSpeedMaxMPH,WindSpeedAvgMPH,GustSpeedMaxMPH,PrecipitationSumIn
2013-2-1,39.2,27.5,18.3,29.7,12.1,3.4,77,53,38,29.59,29.21,13,3,13,0.00
2013-2-2,36.7,26.8,16.5,31.2,20.6,11.8,98,78,57,29.53,29.27,13,2,13,0.00
2013-2-3,52.2,35.8,25.7,33.5,26.6,19.5,98,73,37,29.33,29.18,12,2,12,0.00
2013-2-4,48.6,34.6,20.8,29.5,22.5,19.0,98,66,38,29.33,29.15,11,2,11,0.00
2013-2-5,60.8,47.0,36.1,41.2,34.2,23.9,95,64,38,29.21,29.09,11,3,11,0.00
2013-2-6,61.7,42.4,31.5,40.2,32.5,25.9,98,74,29,29.36,29.21,9,1,9,0.00
2013-2-7,53.8,42.8,34.7,48.3,39.0,32.3,98,88,53,29.30,29.09,12,0,12,0.04
2013-2-8,54.9,43.7,33.8,50.5,37.5,24.9,98,81,47,29.42,29.06,10,2,11,0.08
2013-2-9,53.8,38.9,24.4,30.8,25.1,18.8,89,60,35,29.50,29.39,13,2,13,0.00
2013-2-10,57.9,44.4,33.1,48.9,37.3,27.5,98,80,34,29.42,29.15,20,2,20,0.55
2013-2-11,57.0,49.1,37.2,53.0,44.7,34.4,98,87,47,29.30,29.15,12,2,12,0.04
2013-2-12,50.9,41.6,30.0,39.8,31.9,23.9,98,74,38,29.33,29.00,16,1,16,0.04
2013-2-13,48.6,41.0,34.9,46.8,37.7,30.6,98,89,59,29.18,28.85,13,2,13,0.08
2013-2-14,54.0,41.2,29.5,37.6,30.8,25.3,98,70,40,29.24,29.15,11,1,12,0.00
2013-2-15,60.4,39.2,25.5,42.2,30.8,25.0,98,75,39,29.27,29.15,15,2,15,0.00
2013-2-16,42.3,30.6,18.5,26.1,16.6,10.2,80,57,38,29.33,29.18,13,2,13,0.00
2013-2-17,44.1,26.8,11.7,23.5,13.5,9.8,96,62,31,29.44,29.33,12,1,12,0.00
2013-2-18,57.4,39.6,18.3,29.8,22.7,15.6,98,57,34,29.47,29.18,20,4,20,0.00
2013-2-19,55.9,42.4,26.8,43.7,27.5,10.4,95,60,28,29.39,29.09,21,4,21,0.35
2013-2-20,42.3,29.7,17.4,28.2,15.1,10.2,98,58,34,29.42,29.33,10,1,10,0.00
2013-2-21,55.2,36.7,22.1,38.3,21.8,11.8,98,59,30,29.39,29.12,11,2,11,0.79
2013-2-22,51.1,44.7,38.8,46.0,41.0,38.1,98,87,70,29.24,29.15,10,2,10,0.20
2013-2-23,56.7,45.1,35.6,46.0,42.3,35.1,98,91,62,29.18,29.00,9,1,9,0.28
2013-2-24,55.8,38.9,26.2,37.4,27.7,22.3,98,70,32,29.24,29.09,10,1,10,0.00
2013-2-25,58.5,43.6,29.1,40.2,27.8,19.8,94,56,36,29.18,28.91,21,3,21,0.00
2013-2-26,55.8,46.5,37.9,48.4,40.5,29.0,97,80,55,28.91,28.65,22,7,22,0.51
2013-2-27,54.9,42.5,36.3,33.5,30.4,25.3,88,64,40,29.06,28.91,17,5,17,0.00
2013-2-28,38.7,35.9,33.3,28.1,24.2,20.8,75,62,50,29.18,29.00,17,4,17,0.00